createdAt,value
2022-12-14T00:04:11.503Z,16.83
2022-12-14T00:09:16.500Z,16.83
2022-12-14T00:14:19.949Z,16.81
2022-12-14T00:19:23.451Z,16.82
2022-12-14T00:24:29.083Z,16.81
2022-12-14T00:29:32.565Z,16.81
2022-12-14T00:34:36.041Z,16.83
2022-12-14T00:39:41.210Z,16.81
2022-12-14T00:44:44.729Z,16.82
2022-12-14T00:49:48.725Z,16.83
2022-12-14T00:54:53.739Z,16.80
2022-12-14T00:59:57.238Z,16.79
2022-12-14T01:05:00.979Z,16.80
2022-12-14T01:10:06.306Z,16.82
2022-12-14T01:15:10.781Z,16.81
2022-12-14T01:20:14.362Z,16.81
2022-12-14T01:25:19.458Z,16.79
2022-12-14T01:30:22.986Z,16.79
2022-12-14T01:35:26.493Z,16.79
2022-12-14T01:40:31.451Z,16.79
2022-12-14T01:45:34.918Z,16.80
2022-12-14T01:50:40.549Z,16.80
2022-12-14T01:55:49.038Z,16.79
2022-12-14T02:00:55.675Z,16.78
2022-12-14T02:06:02.801Z,16.79
2022-12-14T02:11:07.740Z,16.77
2022-12-14T02:16:11.656Z,16.77
2022-12-14T02:21:25.336Z,16.78
2022-12-14T02:27:07.048Z,16.78
2022-12-14T02:32:27.762Z,16.79
2022-12-14T02:37:36.233Z,16.76
2022-12-14T02:42:44.441Z,16.77
2022-12-14T02:47:54.611Z,16.81
2022-12-14T02:53:04.087Z,16.79
2022-12-14T02:58:10.477Z,16.79
2022-12-14T03:03:15.470Z,16.79
2022-12-14T03:08:19.052Z,16.76
2022-12-14T03:13:27.358Z,16.78
2022-12-14T03:18:37.974Z,16.79
2022-12-14T03:23:43.503Z,16.74
2022-12-14T03:28:48.789Z,16.77
2022-12-14T03:33:56.211Z,16.77
2022-12-14T03:39:02.263Z,16.74
2022-12-14T03:44:20.825Z,16.76
2022-12-14T03:49:44.357Z,16.73
2022-12-14T03:54:51.226Z,16.73
2022-12-14T04:00:00.997Z,16.74
2022-12-14T04:05:09.682Z,16.77
2022-12-14T04:10:29.991Z,16.74
2022-12-14T04:15:53.592Z,16.76
2022-12-14T04:21:00.830Z,16.73
2022-12-14T04:26:05.921Z,16.73
2022-12-14T04:31:11.085Z,16.74
2022-12-14T04:36:16.308Z,16.72
2022-12-14T04:41:23.424Z,16.72
2022-12-14T04:46:29.224Z,16.72
2022-12-14T04:51:38.034Z,16.73
2022-12-14T04:56:45.992Z,16.70
2022-12-14T05:01:56.928Z,16.71
2022-12-14T05:07:07.406Z,16.72
2022-12-14T05:12:15.103Z,16.73
2022-12-14T05:17:18.665Z,16.73
2022-12-14T05:22:23.575Z,16.71
2022-12-14T05:27:27.258Z,16.71
2022-12-14T05:32:30.939Z,16.69
2022-12-14T05:37:35.831Z,16.71
2022-12-14T05:42:44.394Z,16.69
2022-12-14T05:47:49.484Z,16.68
2022-12-14T05:52:55.889Z,16.69
2022-12-14T05:57:59.396Z,16.68
2022-12-14T06:03:02.960Z,16.69
2022-12-14T06:08:08.058Z,16.67
2022-12-14T06:13:11.602Z,16.69
2022-12-14T06:18:15.079Z,16.68
2022-12-14T06:23:19.941Z,16.66
2022-12-14T06:28:23.464Z,16.66
2022-12-14T06:33:27.288Z,16.67
2022-12-14T06:38:32.562Z,16.64
2022-12-14T06:43:36.102Z,16.67
2022-12-14T06:48:39.679Z,16.64
2022-12-14T06:53:44.587Z,16.65
2022-12-14T06:58:48.292Z,16.65
2022-12-14T07:03:53.656Z,16.65
2022-12-14T07:09:00.311Z,16.64
2022-12-14T07:14:06.344Z,16.66
2022-12-14T07:19:11.052Z,16.65
2022-12-14T07:24:15.983Z,16.63
2022-12-14T07:29:19.659Z,16.62
2022-12-14T07:34:23.117Z,16.64
2022-12-14T07:39:28.326Z,16.62
2022-12-14T07:44:31.823Z,16.63
2022-12-14T07:49:35.345Z,16.61
2022-12-14T07:54:40.213Z,16.61
2022-12-14T07:59:43.746Z,16.61
2022-12-14T08:04:47.773Z,16.61
2022-12-14T08:09:52.714Z,16.61
2022-12-14T08:14:56.192Z,16.58
2022-12-14T08:19:59.677Z,16.59
2022-12-14T08:25:04.529Z,16.60
2022-12-14T08:30:09.380Z,16.61
2022-12-14T08:35:12.889Z,16.59
2022-12-14T08:40:18.328Z,16.58
2022-12-14T08:45:21.874Z,16.59
2022-12-14T08:50:25.432Z,16.62
2022-12-14T08:55:35.162Z,16.59
2022-12-14T09:00:42.056Z,16.59
2022-12-14T09:05:45.574Z,16.57
2022-12-14T09:10:52.522Z,16.61
2022-12-14T09:16:00.217Z,16.61
2022-12-14T09:21:04.496Z,16.65
2022-12-14T09:26:11.926Z,16.67
2022-12-14T09:31:17.492Z,16.69
2022-12-14T09:36:22.613Z,16.71
2022-12-14T09:41:38.297Z,16.74
2022-12-14T09:46:51.803Z,16.79
2022-12-14T09:51:56.718Z,16.81
2022-12-14T09:57:03.349Z,16.82
2022-12-14T10:02:30.914Z,16.87
2022-12-14T10:07:40.049Z,16.86
2022-12-14T10:12:52.595Z,16.86
2022-12-14T10:18:41.391Z,16.88
2022-12-14T10:23:45.194Z,16.91
2022-12-14T10:28:57.868Z,16.96
2022-12-14T10:34:16.166Z,17.00
2022-12-14T10:39:24.345Z,17.02
2022-12-14T10:44:34.525Z,17.01
2022-12-14T10:49:41.402Z,17.02
2022-12-14T10:54:46.851Z,17.05
2022-12-14T11:00:07.710Z,17.01
2022-12-14T11:05:24.798Z,17.06
2022-12-14T11:10:29.723Z,17.00
2022-12-14T11:15:37.130Z,17.02
2022-12-14T11:20:51.139Z,17.05
2022-12-14T11:25:56.551Z,17.01
2022-12-14T11:31:04.068Z,16.97
2022-12-14T11:36:08.481Z,16.98
2022-12-14T11:41:22.271Z,17.00
2022-12-14T11:46:44.935Z,16.95
2022-12-14T11:52:03.688Z,16.88
2022-12-14T11:57:09.250Z,16.91
2022-12-14T12:02:28.745Z,16.92
2022-12-14T12:07:34.905Z,16.95
2022-12-14T12:12:38.966Z,16.89
2022-12-14T12:17:44.942Z,16.92
2022-12-14T12:22:50.691Z,16.91
2022-12-14T12:28:02.076Z,16.91
2022-12-14T12:33:16.663Z,16.89
2022-12-14T12:38:27.777Z,16.87
2022-12-14T12:43:35.715Z,16.86
2022-12-14T12:48:45.078Z,16.87
2022-12-14T12:53:51.677Z,16.83
2022-12-14T12:58:55.483Z,16.81
2022-12-14T13:04:04.106Z,16.80
2022-12-14T13:09:13.385Z,16.82
2022-12-14T13:14:24.339Z,16.81
2022-12-14T13:19:50.511Z,16.81
2022-12-14T13:24:59.629Z,16.80
2022-12-14T13:30:17.612Z,16.79
2022-12-14T13:35:37.458Z,16.76
2022-12-14T13:41:07.384Z,16.78
2022-12-14T13:46:16.713Z,16.75
2022-12-14T13:51:29.664Z,16.80
2022-12-14T13:56:35.951Z,16.78
2022-12-14T14:01:58.192Z,16.80
2022-12-14T14:07:34.859Z,16.78
2022-12-14T14:12:45.320Z,16.75
2022-12-14T14:17:50.128Z,16.73
2022-12-14T14:23:26.844Z,16.74
2022-12-14T14:28:32.283Z,16.72
2022-12-14T14:33:46.204Z,16.74
2022-12-14T14:38:51.441Z,16.73
2022-12-14T14:43:58.201Z,16.75
2022-12-14T14:49:01.864Z,16.76
2022-12-14T14:55:06.923Z,16.73
2022-12-14T15:00:02.783Z,16.70
2022-12-14T15:10:35.471Z,16.73
2022-12-14T15:15:43.320Z,16.70
2022-12-14T15:20:56.255Z,16.71
2022-12-14T15:26:01.012Z,16.70
2022-12-14T15:31:06.354Z,16.70
2022-12-14T15:36:14.235Z,16.70
2022-12-14T15:41:19.133Z,16.67
2022-12-14T15:46:28.326Z,16.70
2022-12-14T15:51:33.936Z,16.66
2022-12-14T15:56:39.755Z,16.66
2022-12-14T16:01:53.940Z,16.70
2022-12-14T16:07:08.710Z,16.68
2022-12-14T16:12:19.237Z,16.66
2022-12-14T16:17:27.921Z,16.64
2022-12-14T16:22:32.194Z,16.66
2022-12-14T16:27:39.693Z,16.63
2022-12-14T16:32:44.783Z,16.69
2022-12-14T16:37:55.899Z,16.66
2022-12-14T16:42:59.458Z,16.68
2022-12-14T16:48:08.691Z,16.62
2022-12-14T16:53:18.263Z,16.65
2022-12-14T16:58:21.680Z,16.62
2022-12-14T17:03:27.836Z,16.61
2022-12-14T17:08:32.336Z,16.62
2022-12-14T17:13:35.879Z,16.65
2022-12-14T17:18:42.362Z,16.65
2022-12-14T17:23:46.066Z,16.65
2022-12-14T17:28:49.753Z,16.64
2022-12-14T17:33:55.579Z,16.63
2022-12-14T17:38:59.117Z,16.60
2022-12-14T17:44:02.613Z,16.62
2022-12-14T17:49:08.516Z,16.64
2022-12-14T17:54:16.666Z,16.61
2022-12-14T17:59:20.113Z,16.59
2022-12-14T18:04:25.075Z,16.56
2022-12-14T18:09:28.559Z,16.58
2022-12-14T18:14:32.091Z,16.59
2022-12-14T18:19:37.136Z,16.58
2022-12-14T18:24:40.641Z,16.57
2022-12-14T18:29:44.242Z,16.56
2022-12-14T18:34:49.093Z,16.59
2022-12-14T18:39:52.570Z,16.55
2022-12-14T18:44:57.383Z,16.56
2022-12-14T18:50:02.285Z,16.55
2022-12-14T18:55:06.540Z,16.55
2022-12-14T19:00:13.290Z,16.56
2022-12-14T19:05:19.028Z,16.55
2022-12-14T19:10:23.898Z,16.55
2022-12-14T19:15:29.347Z,16.53
2022-12-14T19:20:34.158Z,16.54
2022-12-14T19:25:37.687Z,16.54
2022-12-14T19:30:44.217Z,16.53
2022-12-14T19:35:49.592Z,16.50
2022-12-14T19:41:01.108Z,16.52
2022-12-14T19:46:07.451Z,16.54
2022-12-14T19:51:13.625Z,16.55
2022-12-14T19:56:18.835Z,16.53
2022-12-14T20:01:22.465Z,16.54
2022-12-14T20:06:27.443Z,16.53
2022-12-14T20:11:32.240Z,16.52
2022-12-14T20:16:35.839Z,16.52
2022-12-14T20:21:41.158Z,16.53
2022-12-14T20:26:44.713Z,16.51
2022-12-14T20:31:48.352Z,16.52
2022-12-14T20:36:53.466Z,16.50
2022-12-14T20:41:56.938Z,16.50
2022-12-14T20:47:00.638Z,16.49
2022-12-14T20:52:05.642Z,16.51
2022-12-14T20:57:09.127Z,16.53
2022-12-14T21:02:17.592Z,16.49
2022-12-14T21:07:26.038Z,16.46
2022-12-14T21:12:30.233Z,16.48
2022-12-14T21:17:33.927Z,16.48
2022-12-14T21:22:38.828Z,16.48
2022-12-14T21:27:42.487Z,16.49
2022-12-14T21:32:45.957Z,16.45
2022-12-14T21:37:50.818Z,16.49
2022-12-14T21:42:54.287Z,16.48
2022-12-14T21:47:57.787Z,16.48
2022-12-14T21:53:02.707Z,16.48
2022-12-14T21:58:18.360Z,16.46
2022-12-14T22:03:21.941Z,16.45
2022-12-14T22:08:27.192Z,16.45
2022-12-14T22:13:31.017Z,16.47
2022-12-14T22:18:35.600Z,16.47
2022-12-14T22:23:43.619Z,16.47
2022-12-14T22:28:51.197Z,16.45
2022-12-14T22:33:55.297Z,16.48
2022-12-14T22:39:00.550Z,16.45
2022-12-14T22:44:04.179Z,16.45
2022-12-14T22:49:08.816Z,16.45
2022-12-14T22:54:18.622Z,16.45
2022-12-14T22:59:25.335Z,16.43
2022-12-14T23:04:29.387Z,16.46
2022-12-14T23:09:51.560Z,16.41
2022-12-14T23:15:12.309Z,16.44
2022-12-14T23:20:33.241Z,16.44
2022-12-14T23:25:55.672Z,16.44
2022-12-14T23:31:16.946Z,16.45
2022-12-14T23:36:37.833Z,16.43
2022-12-14T23:42:00.250Z,16.40
2022-12-14T23:47:21.268Z,16.42
2022-12-14T23:52:42.138Z,16.42
2022-12-14T23:58:04.675Z,16.40
